Time;durP1;ratioP1;P1;durP2;ratioP2;P2;SDS_P1;SDS_P2;PMS_P1;PMS_P2;Temp;Humidity;BMP_temperature;BMP_pressure;BME280_temperature;BME280_humidity;BME280_pressure;Samples;Min_cycle;Max_cycle;Signal;HPM_P1;HPM_P2
2023/07/14 00:01:23;;;;;;;2.20;1.60;;;;;;;15.42;81.00;99545.74;1683243;84;21055;-76
2023/07/14 00:03:51;;;;;;;4.12;1.57;;;;;;;15.40;81.07;99547.66;1679793;84;21076;-76
2023/07/14 00:06:18;;;;;;;2.83;1.87;;;;;;;15.35;81.10;99551.08;1685185;84;21056;-72
2023/07/14 00:08:45;;;;;;;;;;;;;;;15.30;81.16;99553.19;1681831;84;20965;-77
2023/07/14 00:11:21;;;;;;;2.98;1.50;;;;;;;15.24;81.32;99553.62;1686159;84;20172;-74
2023/07/14 00:13:48;;;;;;;3.55;1.92;;;;;;;15.21;81.41;99559.09;1682374;84;21013;-74
2023/07/14 00:16:16;;;;;;;;;;;;;;;15.14;81.27;99557.81;1669056;85;20997;-76
2023/07/14 00:18:44;;;;;;;1.95;1.67;;;;;;;15.06;81.45;99568.85;1646885;86;20169;-78
2023/07/14 00:21:22;;;;;;;2.45;1.57;;;;;;;14.99;81.54;99561.87;1646411;86;21052;-71
2023/07/14 00:23:50;;;;;;;2.87;1.90;;;;;;;14.97;81.68;99567.70;1644163;86;21047;-76
2023/07/14 00:26:19;;;;;;;;;;;;;;;14.93;81.69;99574.13;1686316;84;21040;-78
2023/07/14 00:28:49;;;;;;;4.33;1.95;;;;;;;14.87;81.84;99571.91;1684268;84;20460;-69
2023/07/14 00:31:18;;;;;;;3.75;1.90;;;;;;;14.81;81.74;99566.20;1687324;84;21028;-69
2023/07/14 00:33:47;;;;;;;5.00;1.70;;;;;;;14.73;81.73;99575.91;1681912;84;20933;-77
2023/07/14 00:36:15;;;;;;;4.10;1.87;;;;;;;14.66;81.77;99581.22;1681770;84;20990;-74
2023/07/14 00:38:41;;;;;;;;;;;;;;;14.60;81.93;99576.38;1648512;86;21097;-69
2023/07/14 00:41:11;;;;;;;2.27;1.55;;;;;;;14.53;82.10;99576.76;1633890;87;20516;-76
2023/07/14 00:43:38;;;;;;;2.35;2.00;;;;;;;14.46;82.04;99575.46;1655748;85;21043;-77
2023/07/14 00:46:04;;;;;;;3.42;2.02;;;;;;;14.43;82.17;99573.04;1663397;85;21483;-76
2023/07/14 00:48:31;;;;;;;2.83;2.00;;;;;;;14.37;82.32;99568.20;1646726;86;21014;-72
2023/07/14 00:51:08;;;;;;;;;;;;;;;14.35;82.41;99572.70;1666358;85;21029;-73
2023/07/14 00:53:37;;;;;;;2.47;1.87;;;;;;;14.30;82.42;99566.89;1660889;85;20194;-76
2023/07/14 00:56:10;;;;;;;3.00;1.98;;;;;;;14.24;82.30;99573.86;1664638;85;21449;-75
2023/07/14 00:58:38;;;;;;;2.37;1.98;;;;;;;14.17;82.53;99575.19;1658896;85;21312;-64
2023/07/14 01:01:08;;;;;;;2.60;1.87;;;;;;;14.13;82.58;99572.40;1664655;85;21616;-67
2023/07/14 01:03:41;;;;;;;6.50;2.20;;;;;;;14.09;82.70;99572.60;1660696;85;21587;-71
2023/07/14 01:06:20;;;;;;;3.77;1.75;;;;;;;14.03;82.69;99570.38;1660504;85;21057;-78
2023/07/14 01:08:55;;;;;;;2.05;1.55;;;;;;;14.01;82.99;99572.72;1663949;86;21028;-72
2023/07/14 01:11:28;;;;;;;4.65;2.20;;;;;;;13.99;82.92;99574.12;1656952;85;21073;-65
2023/07/14 01:13:57;;;;;;;2.15;1.60;;;;;;;13.90;82.98;99577.34;1658041;85;21068;-74
2023/07/14 01:16:24;;;;;;;4.65;1.90;;;;;;;13.81;82.74;99580.55;1663913;85;20958;-68
2023/07/14 01:18:50;;;;;;;3.43;1.57;;;;;;;13.81;82.74;99580.55;1658704;85;21098;-76
2023/07/14 01:21:21;;;;;;;2.90;1.40;;;;;;;13.73;82.95;99580.19;1659319;85;21372;-75
2023/07/14 01:23:53;;;;;;;2.35;1.62;;;;;;;13.61;83.30;99572.14;1656873;85;20994;-66
2023/07/14 01:26:23;;;;;;;2.65;1.70;;;;;;;13.61;83.30;99572.14;1685808;84;22262;-77
2023/07/14 01:28:50;;;;;;;2.95;1.75;;;;;;;13.58;83.29;99574.95;1679962;84;21073;-71
2023/07/14 01:31:22;;;;;;;3.47;1.70;;;;;;;13.40;83.44;99552.48;1687964;84;21550;-71
2023/07/14 01:33:52;;;;;;;3.12;1.60;;;;;;;13.51;83.55;99576.26;1685540;84;21548;-75
2023/07/14 01:36:21;;;;;;;2.08;1.32;;;;;;;13.46;83.68;99577.48;1664373;85;21036;-72
2023/07/14 01:38:48;;;;;;;4.05;1.50;;;;;;;13.46;83.68;99577.48;1647749;86;21038;-72
2023/07/14 01:41:15;;;;;;;3.15;1.70;;;;;;;13.42;83.79;99580.30;1650267;86;21549;-77
2023/07/14 01:43:42;;;;;;;;;;;;;;;13.41;84.12;99580.38;1652190;86;21033;-75
2023/07/14 01:46:15;;;;;;;2.77;1.75;;;;;;;13.38;84.21;99585.81;1647988;86;20157;-78
2023/07/14 01:48:45;;;;;;;2.05;1.52;;;;;;;13.34;84.80;99584.33;1681454;83;21016;-73
2023/07/14 01:51:13;;;;;;;4.05;1.70;;;;;;;13.34;84.80;99584.33;1679385;84;21067;-78
2023/07/14 01:53:43;;;;;;;1.80;1.40;;;;;;;13.32;84.60;99586.19;1686196;83;21501;-76
2023/07/14 01:56:13;;;;;;;3.08;1.70;;;;;;;13.30;84.67;99590.67;1685581;84;21566;-77
2023/07/14 01:58:58;;;;;;;3.92;1.35;;;;;;;13.29;84.74;99589.00;1684480;83;21089;-75
2023/07/14 02:01:26;;;;;;;3.22;2.10;;;;;;;13.27;84.82;99598.73;1645886;86;21097;-67
2023/07/14 02:03:56;;;;;;;4.53;1.95;;;;;;;13.24;84.96;99604.13;1641270;86;21464;-64
2023/07/14 02:06:23;;;;;;;5.53;1.70;;;;;;;13.19;85.35;99603.08;1641672;86;21024;-78
2023/07/14 02:08:51;;;;;;;2.70;1.75;;;;;;;13.19;85.35;99603.08;1646912;86;21162;-73
2023/07/14 02:11:20;;;;;;;3.62;1.92;;;;;;;13.15;85.33;99603.74;1649539;86;21073;-78
2023/07/14 02:13:46;;;;;;;2.77;1.40;;;;;;;13.15;85.69;99603.74;1647966;86;20950;-78
2023/07/14 02:16:15;;;;;;;3.55;1.92;;;;;;;13.12;85.37;99606.55;1650756;86;20992;-66
2023/07/14 02:18:44;;;;;;;4.45;1.80;;;;;;;13.09;85.80;99614.59;1646250;86;20970;-76
2023/07/14 02:21:14;;;;;;;2.50;1.60;;;;;;;13.14;86.30;99612.55;1645574;86;21049;-70
2023/07/14 02:23:42;;;;;;;2.50;1.60;;;;;;;13.12;85.79;99612.27;1642098;86;21481;-77
2023/07/14 02:26:12;;;;;;;3.60;2.20;;;;;;;13.12;85.79;99612.27;1640878;86;22355;-77
2023/07/14 02:28:38;;;;;;;2.55;1.98;;;;;;;13.09;85.84;99617.22;1653541;86;21041;-72
2023/07/14 02:31:08;;;;;;;3.45;1.45;;;;;;;13.05;85.89;99617.04;1644620;86;21022;-76
2023/07/14 02:33:41;;;;;;;4.12;1.60;;;;;;;13.03;85.97;99622.83;1637075;86;21390;-75
2023/07/14 02:36:26;;;;;;;3.20;1.90;;;;;;;13.04;86.69;99627.13;1652172;86;20993;-69
2023/07/14 02:38:55;;;;;;;3.17;1.90;;;;;;;13.07;87.05;99637.42;1672164;84;21044;-78
2023/07/14 02:41:31;;;;;;;3.33;2.10;;;;;;;13.10;86.76;99642.48;1675812;84;21029;-72
2023/07/14 02:44:02;;;;;;;2.62;1.70;;;;;;;13.09;87.08;99640.81;1676775;84;21046;-75
2023/07/14 02:46:42;;;;;;;6.97;1.92;;;;;;;13.12;87.03;99635.38;1676548;84;21059;-75
2023/07/14 02:49:09;;;;;;;3.37;1.82;;;;;;;13.11;87.13;99640.27;1672729;84;21045;-70
2023/07/14 02:51:36;;;;;;;3.98;2.08;;;;;;;13.10;87.23;99634.63;1677142;84;21012;-76
2023/07/14 02:54:05;;;;;;;4.65;1.57;;;;;;;13.11;87.53;99638.95;1673188;84;21112;-68
2023/07/14 02:56:32;;;;;;;4.05;1.80;;;;;;;13.14;87.66;99637.45;1678834;84;21013;-77
2023/07/14 02:58:58;;;;;;;4.45;2.00;;;;;;;13.13;87.36;99635.75;1676883;84;20974;-78
2023/07/14 03:01:25;;;;;;;4.05;2.47;;;;;;;13.13;87.79;99636.22;1658266;85;20950;-78
2023/07/14 03:03:52;;;;;;;3.45;1.55;;;;;;;13.17;88.18;99628.09;1659392;85;21013;-77
2023/07/14 03:06:20;;;;;;;3.92;1.85;;;;;;;13.21;88.17;99634.83;1660708;85;21040;-72
2023/07/14 03:08:47;;;;;;;2.80;1.75;;;;;;;13.25;88.31;99638.13;1658408;85;21082;-68
2023/07/14 03:11:14;;;;;;;2.53;1.90;;;;;;;13.31;87.95;99644.83;1657204;85;21092;-69
2023/07/14 03:13:43;;;;;;;5.65;1.80;;;;;;;13.31;87.95;99644.83;1614670;87;21341;-75
2023/07/14 03:16:13;;;;;;;3.25;1.77;;;;;;;13.31;88.04;99644.83;1598384;88;21038;-64
2023/07/14 03:18:40;;;;;;;2.92;2.00;;;;;;;13.33;88.16;99645.55;1614628;87;21049;-72
2023/07/14 03:21:06;;;;;;;2.10;1.60;;;;;;;13.35;88.53;99650.25;1671225;84;20982;-76
2023/07/14 03:23:37;;;;;;;4.33;1.72;;;;;;;13.38;88.71;99647.44;1677547;84;20993;-75
2023/07/14 03:26:12;;;;;;;3.25;1.70;;;;;;;13.45;88.95;99647.46;1687502;83;21520;-68
2023/07/14 03:28:37;;;;;;;3.80;1.70;;;;;;;13.52;88.90;99651.37;1676520;84;21520;-74
2023/07/14 03:31:07;;;;;;;3.35;1.90;;;;;;;13.58;89.07;99658.91;1651726;84;21127;-76
2023/07/14 03:33:39;;;;;;;4.42;2.00;;;;;;;13.58;89.07;99658.91;1675950;84;21638;-76
2023/07/14 03:36:23;;;;;;;;;;;;;;;;;;;;;
2023/07/14 03:38:45;;;;;;;5.97;2.30;;;;;;;13.72;89.49;99657.20;1574181;90;21111;-71
2023/07/14 03:41:13;;;;;;;4.60;1.98;;;;;;;13.79;89.47;99661.14;1607337;87;21110;-76
2023/07/14 03:43:41;;;;;;;6.28;2.00;;;;;;;13.92;89.64;99662.08;1611138;87;21027;-76
2023/07/14 03:46:10;;;;;;;3.15;1.92;;;;;;;13.92;89.64;99662.08;1610888;87;21034;-77
2023/07/14 03:48:36;;;;;;;6.50;1.82;;;;;;;14.00;89.91;99662.89;1610683;87;21520;-77
2023/07/14 03:51:12;;;;;;;2.45;1.40;;;;;;;14.07;89.88;99663.73;1587367;87;21056;-74
2023/07/14 03:53:37;;;;;;;4.28;1.90;;;;;;;14.13;90.08;99661.67;1612500;86;20993;-75
2023/07/14 03:56:10;;;;;;;3.58;1.90;;;;;;;14.21;90.06;99664.66;1610592;86;21009;-78
2023/07/14 03:58:35;;;;;;;3.00;2.00;;;;;;;14.27;90.00;99666.89;1588477;87;21604;-77
2023/07/14 04:01:08;;;;;;;3.65;2.00;;;;;;;14.20;89.95;99636.70;1610097;87;21086;-68
2023/07/14 04:03:45;;;;;;;8.20;1.80;;;;;;;14.41;90.18;99656.34;1589695;87;21389;-73
2023/07/14 04:06:07;;;;;;;2.33;1.50;;;;;;;14.49;90.30;99659.33;1610237;87;21072;-74
2023/07/14 04:08:38;;;;;;;2.90;1.80;;;;;;;14.58;90.35;99663.65;1610100;87;21067;-76
2023/07/14 04:11:05;;;;;;;2.98;1.70;;;;;;;14.67;90.52;99659.09;1647476;86;21040;-76
2023/07/14 04:13:34;;;;;;;5.20;2.02;;;;;;;14.76;90.43;99663.78;1644745;86;20981;-73
2023/07/14 04:16:01;;;;;;;3.45;1.95;;;;;;;14.84;90.58;99667.20;1643470;86;21564;-78
2023/07/14 04:18:27;;;;;;;2.95;1.50;;;;;;;14.93;90.55;99668.77;1644317;86;21547;-76
2023/07/14 04:20:54;;;;;;;3.70;1.82;;;;;;;15.04;90.59;99664.56;1623501;87;21030;-69
2023/07/14 04:23:27;;;;;;;6.12;2.60;;;;;;;15.13;90.63;99667.91;1607682;87;21357;-76
2023/07/14 04:25:54;;;;;;;3.00;2.00;;;;;;;15.24;90.79;99671.98;1646516;86;21359;-72
2023/07/14 04:28:24;;;;;;;2.85;1.55;;;;;;;15.35;90.78;99672.09;1644965;86;21103;-73
2023/07/14 04:30:56;;;;;;;3.02;2.12;;;;;;;15.45;90.87;99675.77;1646062;86;21597;-73
2023/07/14 04:33:23;;;;;;;2.77;1.50;;;;;;;15.57;90.92;99679.38;1645431;86;21697;-75
2023/07/14 04:35:52;;;;;;;3.27;1.50;;;;;;;15.69;90.97;99674.24;1649703;86;20991;-76
2023/07/14 04:38:19;;;;;;;3.67;2.30;;;;;;;15.77;90.89;99672.76;1640812;86;21030;-73
2023/07/14 04:40:46;;;;;;;5.20;1.52;;;;;;;15.86;91.04;99672.11;1649661;86;21115;-74
2023/07/14 04:43:13;;;;;;;;;;;;;;;16.00;91.11;99683.47;1648954;86;22259;-75
2023/07/14 04:45:43;;;;;;;4.55;1.70;;;;;;;16.09;90.95;99674.91;1630018;87;20155;-71
2023/07/14 04:48:22;;;;;;;3.58;1.60;;;;;;;16.17;90.98;99675.21;1662411;85;21053;-68
2023/07/14 04:50:46;;;;;;;11.00;2.00;;;;;;;16.27;91.06;99672.30;1645119;86;21092;-65
2023/07/14 04:53:14;;;;;;;2.12;1.32;;;;;;;16.36;90.89;99671.27;1648426;85;20983;-75
2023/07/14 04:55:42;;;;;;;5.05;1.55;;;;;;;16.47;91.02;99676.61;1647174;86;21080;-75
2023/07/14 04:58:13;;;;;;;6.40;1.47;;;;;;;16.56;90.91;99678.57;1684961;84;21011;-75
2023/07/14 05:00:40;;;;;;;2.08;1.10;;;;;;;16.69;91.19;99679.37;1685665;84;22617;-70
2023/07/14 05:03:07;;;;;;;3.75;1.60;;;;;;;16.83;90.96;99680.16;1685989;84;20993;-73
2023/07/14 05:05:38;;;;;;;2.77;1.27;;;;;;;16.95;90.89;99684.54;1665841;85;20981;-76
2023/07/14 05:08:05;;;;;;;4.75;1.45;;;;;;;17.04;90.91;99683.01;1645334;86;21557;-69
2023/07/14 05:10:32;;;;;;;5.28;1.27;;;;;;;17.09;90.59;99683.51;1684791;84;21492;-72
2023/07/14 05:12:59;;;;;;;3.05;1.40;;;;;;;17.18;90.80;99683.65;1685092;83;20996;-67
2023/07/14 05:15:26;;;;;;;3.62;1.52;;;;;;;17.30;90.75;99681.87;1687693;84;21433;-75
2023/07/14 05:17:55;;;;;;;3.52;1.72;;;;;;;17.43;90.93;99679.16;1676192;84;20949;-71
2023/07/14 05:20:24;;;;;;;2.75;1.35;;;;;;;17.57;91.00;99678.94;1665825;85;21563;-65
2023/07/14 05:22:53;;;;;;;2.45;1.32;;;;;;;17.74;90.99;99679.44;1645481;86;21051;-75
2023/07/14 05:25:23;;;;;;;5.30;1.30;;;;;;;17.87;90.85;99686.31;1624458;86;21113;-73
2023/07/14 05:27:51;;;;;;;4.53;1.47;;;;;;;18.01;90.55;99683.05;1621268;87;21007;-75
2023/07/14 05:30:27;;;;;;;2.45;1.35;;;;;;;18.11;90.62;99690.63;1650609;86;21094;-76
2023/07/14 05:32:51;;;;;;;3.75;1.60;;;;;;;18.21;90.48;99693.39;1646056;86;21081;-67
2023/07/14 05:35:18;;;;;;;4.92;1.70;;;;;;;18.32;90.61;99693.38;1645421;86;21103;-76
2023/07/14 05:37:45;;;;;;;;;;;;;;;18.45;90.46;99696.69;1651987;86;21113;-75
2023/07/14 05:40:13;;;;;;;1.87;1.10;;;;;;;18.56;90.29;99688.73;1635840;87;20150;-74
2023/07/14 05:42:42;;;;;;;3.33;1.12;;;;;;;18.69;90.29;99690.40;1666676;84;21503;-69
2023/07/14 05:45:12;;;;;;;3.67;1.30;;;;;;;18.81;89.84;99689.41;1691879;84;21068;-66
2023/07/14 05:47:43;;;;;;;6.62;1.35;;;;;;;18.87;89.93;99695.52;1682676;84;20984;-75
2023/07/14 05:50:09;;;;;;;5.58;1.20;;;;;;;18.95;89.62;99697.05;1658359;86;21013;-73
2023/07/14 05:52:37;;;;;;;2.40;1.40;;;;;;;19.13;89.79;99700.00;1688507;84;21005;-74
2023/07/14 05:55:05;;;;;;;3.58;1.15;;;;;;;19.05;88.17;99696.31;1683282;84;21633;-65
2023/07/14 05:57:35;;;;;;;2.72;1.20;;;;;;;19.01;88.35;99693.89;1685507;84;21535;-77
2023/07/14 06:00:16;;;;;;;4.00;1.27;;;;;;;19.15;89.10;99696.72;1637016;87;21056;-71
2023/07/14 06:02:46;;;;;;;3.35;1.25;;;;;;;19.34;89.20;99697.35;1638455;86;20967;-68
2023/07/14 06:05:15;;;;;;;4.12;1.07;;;;;;;19.51;88.84;99700.39;1659885;84;21837;-65
2023/07/14 06:07:43;;;;;;;;;;;;;;;19.60;88.89;99702.25;1682624;84;21040;-71
2023/07/14 06:10:12;;;;;;;5.05;1.30;;;;;;;19.82;88.87;99692.84;1684783;84;20477;-70
2023/07/14 06:12:48;;;;;;;4.15;1.37;;;;;;;20.24;89.42;99699.35;1644192;86;21103;-69
2023/07/14 06:15:18;;;;;;;9.83;1.00;;;;;;;20.44;88.39;99704.70;1640466;86;21555;-69
2023/07/14 06:17:38;;;;;;;2.77;1.10;;;;;;;20.77;88.99;99699.07;1636963;86;21012;-67
2023/07/14 06:20:11;;;;;;;4.95;1.40;;;;;;;21.15;87.37;99708.03;1640511;86;21073;-69
2023/07/14 06:22:37;;;;;;;4.08;1.35;;;;;;;21.29;86.70;99700.62;1632885;86;21015;-76
2023/07/14 06:25:04;;;;;;;6.55;1.70;;;;;;;21.20;85.25;99705.80;1621378;87;21013;-65
2023/07/14 06:27:33;;;;;;;;;;;;;;;21.10;85.67;99707.61;1688235;84;21492;-74
2023/07/14 06:30:00;;;;;;;2.45;1.10;;;;;;;21.09;85.58;99705.95;1684768;84;20181;-74
2023/07/14 06:32:26;;;;;;;;;;;;;;;21.24;86.32;99706.34;1687881;84;21088;-65
2023/07/14 06:34:56;;;;;;;4.58;1.20;;;;;;;21.34;84.69;99699.68;1656534;86;20180;-71
2023/07/14 06:37:28;;;;;;;5.35;1.17;;;;;;;21.31;84.88;99700.80;1617038;86;20992;-75
2023/07/14 06:39:54;;;;;;;2.65;1.10;;;;;;;21.34;84.18;99696.56;1692396;83;21021;-68
2023/07/14 06:42:21;;;;;;;2.20;1.10;;;;;;;21.47;83.67;99697.60;1685329;84;21444;-74
2023/07/14 06:44:47;;;;;;;5.12;1.30;;;;;;;21.65;84.63;99698.55;1646770;86;21526;-73
2023/07/14 06:47:15;;;;;;;6.65;1.40;;;;;;;21.99;83.89;99695.36;1630263;87;21024;-68
2023/07/14 06:49:41;;;;;;;;;;;;;;;22.16;82.64;99695.56;1664773;85;21032;-73
2023/07/14 06:52:08;;;;;;;7.35;0.98;;;;;;;22.15;81.68;99700.52;1643663;86;20175;-72
2023/07/14 06:54:34;;;;;;;1.62;0.90;;;;;;;22.15;81.98;99697.86;1692388;84;21100;-69
2023/07/14 06:57:00;;;;;;;3.22;1.30;;;;;;;22.10;82.46;99700.48;1695195;84;20970;-64
2023/07/14 06:59:27;;;;;;;3.97;1.17;;;;;;;22.97;83.20;99694.33;1662423;86;21056;-68
2023/07/14 07:01:53;;;;;;;5.17;1.00;;;;;;;22.97;83.20;99694.33;1688024;84;20939;-73
2023/07/14 07:04:19;;;;;;;3.63;1.10;;;;;;;23.00;80.10;99700.17;1688014;83;20977;-69
2023/07/14 07:06:45;;;;;;;2.97;0.90;;;;;;;23.23;81.57;99703.69;1642614;86;21585;-68
2023/07/14 07:09:12;;;;;;;3.53;0.90;;;;;;;23.89;82.98;99701.84;1686655;84;21595;-74
2023/07/14 07:11:38;;;;;;;8.13;1.17;;;;;;;24.26;79.81;99698.00;1689597;84;21064;-65
2023/07/14 07:14:04;;;;;;;8.33;1.10;;;;;;;24.65;78.02;99700.14;1648735;86;21042;-67
2023/07/14 07:16:32;;;;;;;9.68;1.45;;;;;;;24.82;80.12;99697.51;1645024;86;20942;-79
2023/07/14 07:19:00;;;;;;;2.80;1.27;;;;;;;25.45;80.39;99692.84;1646662;86;21717;-74
2023/07/14 07:21:26;;;;;;;4.87;1.32;;;;;;;26.39;78.13;99699.27;1640951;86;21054;-71
2023/07/14 07:23:53;;;;;;;6.05;1.17;;;;;;;26.42;76.43;99696.75;1638998;86;20927;-72
2023/07/14 07:26:19;;;;;;;4.00;1.40;;;;;;;26.15;75.76;99700.71;1643542;86;21619;-76
2023/07/14 07:28:50;;;;;;;;;;;;;;;25.70;75.73;99700.83;1643155;86;21544;-73
2023/07/14 07:31:14;;;;;;;1.72;0.80;;;;;;;25.84;77.50;99705.50;1622574;87;20499;-70
2023/07/14 07:33:42;;;;;;;;;;;;;;;27.12;79.44;99706.53;1625436;87;21006;-74
2023/07/14 07:36:15;;;;;;;2.92;1.07;;;;;;;28.58;77.11;99695.25;1622669;87;20469;-68
2023/07/14 07:38:47;;;;;;;4.62;1.10;;;;;;;29.94;75.82;99704.09;1645017;86;21064;-69
2023/07/14 07:41:17;;;;;;;3.42;1.00;;;;;;;29.66;71.29;99707.66;1643406;86;21037;-72
2023/07/14 07:43:44;;;;;;;9.83;1.32;;;;;;;28.60;70.84;99713.37;1618797;87;21087;-66
2023/07/14 07:46:11;;;;;;;1.15;0.60;;;;;;;28.45;72.95;99711.21;1616713;87;21475;-74
2023/07/14 07:48:38;;;;;;;4.28;1.07;;;;;;;29.65;73.56;99700.59;1662416;86;21044;-74
2023/07/14 07:51:05;;;;;;;;;;;;;;;30.06;70.32;99707.88;1686807;84;20978;-69
2023/07/14 07:53:32;;;;;;;3.60;1.17;;;;;;;29.44;68.70;99707.36;1691513;84;20452;-70
2023/07/14 07:56:01;;;;;;;21.60;1.82;;;;;;;30.18;72.50;99703.27;1684591;83;21899;-74
2023/07/14 07:58:28;;;;;;;3.45;1.30;;;;;;;31.36;70.13;99699.23;1687848;84;21028;-76
2023/07/14 08:00:56;;;;;;;6.78;1.40;;;;;;;31.76;65.44;99710.49;1683746;83;21485;-65
2023/07/14 08:03:23;;;;;;;2.33;0.85;;;;;;;30.94;63.79;99703.95;1661905;86;21025;-74
2023/07/14 08:05:50;;;;;;;3.90;1.20;;;;;;;31.10;59.59;99714.05;1689583;84;21099;-69
2023/07/14 08:08:23;;;;;;;2.37;1.00;;;;;;;31.94;67.62;99710.70;1688791;83;20985;-71
2023/07/14 08:10:49;;;;;;;2.27;0.80;;;;;;;33.51;67.85;99702.94;1627047;87;22043;-66
2023/07/14 08:13:17;;;;;;;3.70;1.07;;;;;;;34.91;65.93;99700.77;1639779;86;21706;-76
2023/07/14 08:15:45;;;;;;;5.37;0.93;;;;;;;35.85;61.02;99702.23;1618613;87;21088;-72
2023/07/14 08:18:11;;;;;;;15.68;1.75;;;;;;;34.86;59.37;99699.28;1682709;84;21515;-72
2023/07/14 08:20:37;;;;;;;;;;;;;;;33.46;58.59;99700.06;1693172;84;20958;-65
2023/07/14 08:23:07;;;;;;;13.95;1.25;;;;;;;33.95;60.77;99698.36;1688214;84;20197;-68
2023/07/14 08:25:34;;;;;;;5.12;1.07;;;;;;;34.72;58.71;99703.25;1687168;84;21037;-71
2023/07/14 08:28:00;;;;;;;3.85;1.02;;;;;;;35.36;60.84;99711.66;1662118;86;21029;-73
2023/07/14 08:30:33;;;;;;;3.80;1.17;;;;;;;36.75;58.70;99708.14;1687669;84;21064;-75
2023/07/14 08:32:58;;;;;;;2.83;1.07;;;;;;;38.28;59.63;99704.19;1689297;84;21182;-69
2023/07/14 08:35:24;;;;;;;3.42;1.07;;;;;;;39.74;55.67;99680.34;1661851;85;20994;-75
2023/07/14 08:37:51;;;;;;;23.40;2.25;;;;;;;39.74;55.67;99680.34;1688099;84;21313;-74
2023/07/14 08:40:24;;;;;;;4.08;0.90;;;;;;;40.25;53.92;99707.16;1687063;84;21566;-69
2023/07/14 08:43:29;;;;;;;2.52;1.02;;;;;;;40.56;54.07;99708.05;1646634;85;21110;-71
2023/07/14 08:46:05;;;;;;;4.17;0.82;;;;;;;40.65;48.75;99709.19;1651645;85;21041;-66
2023/07/14 08:48:37;;;;;;;3.35;0.90;;;;;;;38.79;49.93;99712.92;1663663;85;20976;-70
2023/07/14 08:51:06;;;;;;;3.15;0.93;;;;;;;36.74;49.43;99711.37;1652439;86;21114;-71
2023/07/14 08:53:39;;;;;;;3.17;1.00;;;;;;;35.06;49.71;99704.42;1646112;85;21608;-70
2023/07/14 08:56:05;;;;;;;3.75;1.10;;;;;;;35.21;51.61;99706.70;1646675;85;21055;-64
2023/07/14 08:58:38;;;;;;;3.45;0.95;;;;;;;36.58;50.37;99710.83;1655635;85;21153;-75
2023/07/14 09:01:09;;;;;;;2.05;1.07;;;;;;;37.91;50.56;99702.08;1661025;85;21123;-76
2023/07/14 09:03:49;;;;;;;7.55;1.15;;;;;;;37.91;47.19;99707.53;1663604;85;21671;-76
2023/07/14 09:06:24;;;;;;;3.30;1.07;;;;;;;36.33;45.16;99717.92;1663101;85;21032;-73
2023/07/14 09:08:52;;;;;;;3.40;0.98;;;;;;;34.70;47.09;99712.13;1668842;85;21055;-70
2023/07/14 09:11:35;;;;;;;4.25;0.95;;;;;;;34.84;46.12;99728.51;1651872;86;20998;-74
2023/07/14 09:14:16;;;;;;;4.53;0.80;;;;;;;33.96;45.10;99720.31;1653454;86;21125;-65
2023/07/14 09:16:46;;;;;;;4.20;0.80;;;;;;;32.55;45.74;99717.56;1653225;86;21550;-75
2023/07/14 09:19:21;;;;;;;5.05;0.80;;;;;;;31.38;45.74;99724.67;1664044;84;21045;-70
2023/07/14 09:22:17;;;;;;;5.10;0.90;;;;;;;30.10;46.08;99722.59;1653094;86;21005;-78
2023/07/14 09:25:04;;;;;;;4.42;1.00;;;;;;;29.11;46.29;99729.94;1654656;85;21040;-66
2023/07/14 09:27:32;;;;;;;4.00;0.82;;;;;;;28.42;46.46;99733.05;1658313;85;21063;-72
2023/07/14 09:30:00;;;;;;;2.77;0.90;;;;;;;28.18;47.18;99735.55;1684908;84;21033;-66
2023/07/14 09:32:39;;;;;;;5.25;0.88;;;;;;;29.01;48.10;99732.89;1682618;84;21115;-71
2023/07/14 09:35:18;;;;;;;5.28;1.02;;;;;;;29.53;46.05;99731.73;1684777;84;21017;-73
2023/07/14 09:38:06;;;;;;;7.17;1.07;;;;;;;28.70;46.20;99735.36;1682474;84;21080;-74
2023/07/14 09:40:35;;;;;;;5.62;1.10;;;;;;;27.80;46.59;99744.49;1639963;86;21301;-73
2023/07/14 09:43:03;;;;;;;2.58;0.78;;;;;;;26.82;46.84;99741.22;1679112;84;21120;-66
2023/07/14 09:45:36;;;;;;;3.47;1.00;;;;;;;26.16;47.21;99739.83;1684420;84;21135;-68
2023/07/14 09:48:05;;;;;;;1.80;0.78;;;;;;;25.45;47.53;99740.95;1682165;84;20981;-63
2023/07/14 09:50:35;;;;;;;4.47;1.07;;;;;;;24.90;48.12;99734.87;1664312;85;21032;-65
2023/07/14 09:53:05;;;;;;;2.00;0.82;;;;;;;24.50;48.60;99741.79;1666394;85;21520;-75
2023/07/14 09:55:50;;;;;;;8.35;2.33;;;;;;;25.41;51.80;99743.14;1651699;86;21062;-67
2023/07/14 09:58:19;;;;;;;32.40;10.40;;;;;;;28.30;52.35;99737.55;1646087;86;21079;-66
2023/07/14 10:00:49;;;;;;;4.42;1.20;;;;;;;31.75;51.55;99725.87;1645431;86;21615;-75
2023/07/14 10:03:28;;;;;;;5.78;1.20;;;;;;;33.90;49.21;99722.58;1648373;86;21012;-73
2023/07/14 10:05:53;;;;;;;5.15;2.00;;;;;;;33.38;46.82;99722.00;1662344;85;20997;-72
2023/07/14 10:08:29;;;;;;;3.65;1.22;;;;;;;31.56;45.84;99734.81;1643052;86;21019;-74
2023/07/14 10:10:59;;;;;;;3.05;1.07;;;;;;;29.84;46.96;99741.30;1680262;84;21025;-67
2023/07/14 10:13:28;;;;;;;2.92;0.80;;;;;;;28.04;47.45;99741.23;1678922;84;21401;-68
2023/07/14 10:16:08;;;;;;;3.72;0.80;;;;;;;26.68;47.49;99750.84;1680980;84;21629;-69
2023/07/14 10:18:31;;;;;;;3.30;0.80;;;;;;;25.73;47.39;99749.95;1683783;84;20976;-77
2023/07/14 10:21:01;;;;;;;1.92;0.98;;;;;;;24.84;47.87;99750.22;1678975;84;21096;-76
2023/07/14 10:23:30;;;;;;;3.62;0.80;;;;;;;24.04;48.25;99746.58;1683654;84;21072;-80
2023/07/14 10:25:56;;;;;;;4.10;0.68;;;;;;;23.52;48.65;99757.19;1664878;85;21043;-70
2023/07/14 10:28:28;;;;;;;2.72;1.02;;;;;;;23.24;49.43;99757.30;1648189;86;21670;-69
2023/07/14 10:31:04;;;;;;;2.05;0.80;;;;;;;22.98;49.80;99758.06;1650386;86;22201;-78
2023/07/14 10:33:43;;;;;;;2.98;0.55;;;;;;;22.96;50.20;99754.70;1646986;86;21025;-75
2023/07/14 10:36:13;;;;;;;2.42;0.60;;;;;;;23.26;51.61;99750.00;1646271;86;21887;-68
2023/07/14 10:38:46;;;;;;;2.62;0.85;;;;;;;24.75;52.05;99746.20;1642394;86;21080;-77
2023/07/14 10:41:16;;;;;;;2.45;0.82;;;;;;;25.51;51.06;99738.94;1642639;86;21132;-70
2023/07/14 10:43:48;;;;;;;2.27;0.53;;;;;;;25.73;50.60;99732.06;1652798;86;21007;-78
2023/07/14 10:46:19;;;;;;;4.00;1.05;;;;;;;25.61;50.94;99734.27;1683525;84;21009;-75
2023/07/14 10:48:52;;;;;;;2.42;1.00;;;;;;;25.58;51.59;99731.09;1654787;85;21075;-72
2023/07/14 10:51:29;;;;;;;1.60;0.98;;;;;;;25.92;52.25;99728.72;1648761;86;21363;-72
2023/07/14 10:54:03;;;;;;;1.25;0.80;;;;;;;28.31;55.11;99720.92;1683173;84;21024;-70
2023/07/14 10:56:35;;;;;;;4.23;1.10;;;;;;;31.51;53.35;99718.42;1687724;83;20966;-74
2023/07/14 10:59:08;;;;;;;1.82;0.88;;;;;;;34.13;52.19;99716.50;1656850;84;21045;-75
2023/07/14 11:01:40;;;;;;;3.52;1.10;;;;;;;35.76;51.12;99717.22;1665707;85;21080;-74
2023/07/14 11:04:18;;;;;;;7.25;1.37;;;;;;;37.55;49.61;99707.03;1639075;86;21013;-75
2023/07/14 11:06:45;;;;;;;;;;;;;;;38.31;48.42;99717.30;1659105;85;21055;-76
2023/07/14 11:09:17;;;;;;;2.55;1.00;;;;;;;37.86;45.94;99712.91;1655788;85;20575;-66
2023/07/14 11:12:06;;;;;;;7.78;1.05;;;;;;;37.70;46.11;99711.89;1681973;84;21024;-72
2023/07/14 11:14:42;;;;;;;3.05;0.62;;;;;;;37.58;44.78;99712.52;1683993;84;21077;-74
2023/07/14 11:17:45;;;;;;;2.15;0.85;;;;;;;38.20;45.77;99715.53;1676257;84;21005;-75
2023/07/14 11:20:21;;;;;;;3.52;1.00;;;;;;;38.99;45.01;99712.34;1678057;84;21017;-67
2023/07/14 11:22:52;;;;;;;;;;;;;;;39.65;41.22;99712.00;1681077;84;22233;-69
2023/07/14 11:25:39;;;;;;;1.42;0.85;;;;;;;37.21;41.24;99706.21;1681533;84;20158;-72
2023/07/14 11:28:17;;;;;;;3.67;1.00;;;;;;;37.21;41.24;99706.21;1643393;86;21629;-70
2023/07/14 11:30:46;;;;;;;2.47;0.95;;;;;;;35.16;41.57;99705.22;1654163;85;21051;-67
2023/07/14 11:33:32;;;;;;;2.62;0.85;;;;;;;33.09;39.72;99713.50;1661800;85;21090;-69
2023/07/14 11:36:02;;;;;;;2.30;0.82;;;;;;;31.04;40.60;99720.27;1657639;85;21562;-74
2023/07/14 11:38:43;;;;;;;2.17;0.80;;;;;;;29.63;41.40;99720.16;1639531;86;21109;-72
2023/07/14 11:41:13;;;;;;;2.85;0.82;;;;;;;28.86;41.51;99724.07;1628050;87;21047;-73
2023/07/14 11:43:41;;;;;;;2.45;0.88;;;;;;;29.15;43.21;99729.33;1657806;85;21045;-68
2023/07/14 11:46:13;;;;;;;3.05;0.88;;;;;;;30.71;43.21;99721.00;1657663;85;21056;-74
2023/07/14 11:48:45;;;;;;;6.35;0.93;;;;;;;31.96;42.48;99726.67;1646914;86;21079;-65
2023/07/14 11:51:19;;;;;;;3.35;0.75;;;;;;;33.03;42.35;99722.49;1678578;84;21011;-66
2023/07/14 11:54:13;;;;;;;3.75;0.78;;;;;;;33.30;41.87;99719.56;1678638;84;21108;-66